createdAt,value
2023-04-23T00:00:49.174Z,17.80
2023-04-23T00:03:19.474Z,17.79
2023-04-23T00:05:47.614Z,17.80
2023-04-23T00:08:17.996Z,17.73
2023-04-23T00:10:45.963Z,17.75
2023-04-23T00:13:13.936Z,17.75
2023-04-23T00:15:41.685Z,17.75
2023-04-23T00:18:09.197Z,17.73
2023-04-23T00:20:36.932Z,17.73
2023-04-23T00:23:04.424Z,17.70
2023-04-23T00:25:32.183Z,17.70
2023-04-23T00:27:59.754Z,17.64
2023-04-23T00:30:27.340Z,17.32
2023-04-23T00:32:55.342Z,17.18
2023-04-23T00:35:23.376Z,17.24
2023-04-23T00:37:50.938Z,17.24
2023-04-23T00:40:18.618Z,17.12
2023-04-23T00:42:46.282Z,17.09
2023-04-23T00:45:13.974Z,17.06
2023-04-23T00:47:41.817Z,17.01
2023-04-23T00:50:09.819Z,16.99
2023-04-23T00:52:39.118Z,17.05
2023-04-23T00:55:08.455Z,17.02
2023-04-23T00:57:37.941Z,16.96
2023-04-23T01:00:07.445Z,16.96
2023-04-23T01:02:37.370Z,16.93
2023-04-23T01:05:07.671Z,16.90
2023-04-23T01:07:36.296Z,16.80
2023-04-23T01:10:05.238Z,16.85
2023-04-23T01:12:33.954Z,16.91
2023-04-23T01:15:02.135Z,16.94
2023-04-23T01:17:29.805Z,16.96
2023-04-23T01:19:57.417Z,16.92
2023-04-23T01:22:25.279Z,16.97
2023-04-23T01:24:53.175Z,16.95
2023-04-23T01:27:22.249Z,16.95
2023-04-23T01:29:49.948Z,16.90
2023-04-23T01:32:19.474Z,16.89
2023-04-23T01:34:48.150Z,16.87
2023-04-23T01:37:17.338Z,16.87
2023-04-23T01:39:44.981Z,16.87
2023-04-23T01:42:12.673Z,16.84
2023-04-23T01:44:40.803Z,16.84
2023-04-23T01:47:08.514Z,16.84
2023-04-23T01:49:36.325Z,16.83
2023-04-23T01:52:04.140Z,16.80
2023-04-23T01:54:31.665Z,16.79
2023-04-23T01:56:59.256Z,16.79
2023-04-23T01:59:27.198Z,16.68
2023-04-23T02:01:54.765Z,16.72
2023-04-23T02:04:23.037Z,16.71
2023-04-23T02:06:52.494Z,16.72
2023-04-23T02:09:20.137Z,16.74
2023-04-23T02:11:47.842Z,16.73
2023-04-23T02:14:17.365Z,16.73
2023-04-23T02:16:45.470Z,16.73
2023-04-23T02:19:15.351Z,16.70
2023-04-23T02:21:43.520Z,16.66
2023-04-23T02:24:11.700Z,16.66
2023-04-23T02:26:39.233Z,16.66
2023-04-23T02:29:06.742Z,16.65
2023-04-23T02:31:34.353Z,16.64
2023-04-23T02:34:01.843Z,16.61
2023-04-23T02:36:31.054Z,16.59
2023-04-23T02:38:58.553Z,16.60
2023-04-23T02:41:26.073Z,16.59
2023-04-23T02:43:53.572Z,16.59
2023-04-23T02:46:21.393Z,16.61
2023-04-23T02:48:49.054Z,16.61
2023-04-23T02:51:16.678Z,16.60
2023-04-23T02:53:44.176Z,16.58
2023-04-23T02:56:11.676Z,16.58
2023-04-23T02:58:39.265Z,16.59
2023-04-23T03:01:07.158Z,16.56
2023-04-23T03:03:34.957Z,16.57
2023-04-23T03:06:06.598Z,16.56
2023-04-23T03:08:34.314Z,16.55
2023-04-23T03:11:01.806Z,16.53
2023-04-23T03:13:29.543Z,16.52
2023-04-23T03:15:57.919Z,16.52
2023-04-23T03:18:27.014Z,16.50
2023-04-23T03:20:55.648Z,16.50
2023-04-23T03:23:24.642Z,16.50
2023-04-23T03:25:52.201Z,16.52
2023-04-23T03:28:19.996Z,16.53
2023-04-23T03:30:47.708Z,16.54
2023-04-23T03:33:15.314Z,16.54
2023-04-23T03:35:42.983Z,16.56
2023-04-23T03:38:15.591Z,16.53
2023-04-23T03:40:43.318Z,16.54
2023-04-23T03:43:12.219Z,16.55
2023-04-23T03:46:02.709Z,16.54
2023-04-23T03:48:33.175Z,16.52
2023-04-23T03:51:05.587Z,16.49
2023-04-23T03:53:58.885Z,16.43
2023-04-23T03:56:29.000Z,16.37
2023-04-23T03:59:28.908Z,16.37
2023-04-23T04:01:59.846Z,16.33
2023-04-23T04:04:28.320Z,16.30
2023-04-23T04:06:57.714Z,16.26
2023-04-23T04:09:29.431Z,16.22
2023-04-23T04:12:01.856Z,16.22
2023-04-23T04:14:29.631Z,16.20
2023-04-23T04:16:57.213Z,16.15
2023-04-23T04:19:24.941Z,16.12
2023-04-23T04:21:52.433Z,16.10
2023-04-23T04:24:19.916Z,16.07
2023-04-23T04:26:47.632Z,16.07
2023-04-23T04:29:15.178Z,16.06
2023-04-23T04:31:42.794Z,16.03
2023-04-23T04:34:10.491Z,16.05
2023-04-23T04:36:37.992Z,16.01
2023-04-23T04:39:05.564Z,16.04
2023-04-23T04:41:33.454Z,16.06
2023-04-23T04:44:00.944Z,16.05
2023-04-23T04:46:29.435Z,16.03
2023-04-23T04:48:57.035Z,16.05
2023-04-23T04:51:24.554Z,16.07
2023-04-23T04:53:52.080Z,16.07
2023-04-23T04:56:19.543Z,16.07
2023-04-23T04:58:47.186Z,16.08
2023-04-23T05:01:15.887Z,16.08
2023-04-23T05:03:43.723Z,16.11
2023-04-23T05:06:11.357Z,16.12
2023-04-23T05:08:38.831Z,16.13
2023-04-23T05:11:06.439Z,16.00
2023-04-23T05:13:33.956Z,16.01
2023-04-23T05:16:01.561Z,16.00
2023-04-23T05:18:29.564Z,15.90
2023-04-23T05:20:57.082Z,15.93
2023-04-23T05:23:24.652Z,15.97
2023-04-23T05:25:55.770Z,15.98
2023-04-23T05:28:23.280Z,15.98
2023-04-23T05:30:51.832Z,16.02
2023-04-23T05:33:19.389Z,16.04
2023-04-23T05:35:46.856Z,16.05
2023-04-23T05:38:14.376Z,16.09
2023-04-23T05:40:41.952Z,16.14
2023-04-23T05:43:09.655Z,16.16
2023-04-23T05:45:37.223Z,16.19
2023-04-23T05:48:04.819Z,16.21
2023-04-23T05:53:35.899Z,16.29
2023-04-23T05:56:03.749Z,16.26
2023-04-23T05:58:31.226Z,16.29
2023-04-23T06:00:58.772Z,16.34
2023-04-23T06:03:26.941Z,16.34
2023-04-23T06:05:54.827Z,16.34
2023-04-23T06:08:24.542Z,16.38
2023-04-23T06:10:52.701Z,16.45
2023-04-23T06:13:20.744Z,16.51
2023-04-23T06:15:48.249Z,16.53
2023-04-23T06:18:15.856Z,16.54
2023-04-23T06:20:43.473Z,16.57
2023-04-23T06:23:12.716Z,16.59
2023-04-23T06:25:40.493Z,16.64
2023-04-23T06:28:07.968Z,16.69
2023-04-23T06:30:44.129Z,16.69
2023-04-23T06:33:13.127Z,16.68
2023-04-23T06:35:40.679Z,16.66
2023-04-23T06:38:08.154Z,16.67
2023-04-23T06:40:35.776Z,16.72
2023-04-23T06:43:05.267Z,16.73
2023-04-23T06:45:56.247Z,16.71
2023-04-23T06:48:23.734Z,16.69
2023-04-23T06:50:51.361Z,16.66
2023-04-23T06:53:18.920Z,16.71
2023-04-23T06:55:46.428Z,16.81
2023-04-23T06:58:14.887Z,16.90
2023-04-23T07:00:43.515Z,16.96
2023-04-23T07:03:11.876Z,16.99
2023-04-23T07:05:39.397Z,17.05
2023-04-23T07:08:06.953Z,17.13
2023-04-23T07:10:34.456Z,17.18
2023-04-23T07:13:02.096Z,17.20
2023-04-23T07:15:29.696Z,17.19
2023-04-23T07:17:57.272Z,17.17
2023-04-23T07:20:24.857Z,17.15
2023-04-23T07:22:52.810Z,17.15
2023-04-23T07:25:22.427Z,17.18
2023-04-23T07:27:49.911Z,17.22
2023-04-23T07:30:17.735Z,17.24
2023-04-23T07:32:45.256Z,17.25
2023-04-23T07:35:13.030Z,17.30
2023-04-23T07:37:40.681Z,17.38
2023-04-23T07:40:09.356Z,17.46
2023-04-23T07:42:36.845Z,17.55
2023-04-23T07:45:05.843Z,17.63
2023-04-23T07:47:33.507Z,17.69
2023-04-23T07:50:01.129Z,17.79
2023-04-23T07:52:28.629Z,17.91
2023-04-23T07:54:56.254Z,18.07
2023-04-23T07:57:24.141Z,18.19
2023-04-23T07:59:51.798Z,18.28
2023-04-23T08:02:23.586Z,18.38
2023-04-23T08:04:51.378Z,18.44
2023-04-23T08:07:19.337Z,18.49
2023-04-23T08:09:47.386Z,18.50
2023-04-23T08:12:17.135Z,18.41
2023-04-23T08:14:47.216Z,18.36
2023-04-23T08:17:17.388Z,18.28
2023-04-23T08:19:44.887Z,18.12
2023-04-23T08:22:13.461Z,18.04
2023-04-23T08:24:41.084Z,17.89
2023-04-23T08:27:08.642Z,17.75
2023-04-23T08:29:36.285Z,17.60
2023-04-23T08:32:03.996Z,17.52
2023-04-23T08:34:31.489Z,17.52
2023-04-23T08:36:58.978Z,17.53
2023-04-23T08:39:27.938Z,17.54
2023-04-23T08:41:56.177Z,17.57
2023-04-23T08:44:26.187Z,17.68
2023-04-23T08:46:54.778Z,17.76
2023-04-23T08:49:22.297Z,17.89
2023-04-23T08:51:53.310Z,18.00
2023-04-23T08:54:28.351Z,18.06
2023-04-23T08:57:00.774Z,18.15
2023-04-23T08:59:34.173Z,18.25
2023-04-23T09:02:07.951Z,18.35
2023-04-23T09:04:36.977Z,18.44
2023-04-23T09:07:07.963Z,18.42
2023-04-23T09:09:36.647Z,18.41
2023-04-23T09:12:06.881Z,18.46
2023-04-23T09:14:35.628Z,18.51
2023-04-23T09:17:03.897Z,18.57
2023-04-23T09:19:31.635Z,18.64
2023-04-23T09:22:01.999Z,18.73
2023-04-23T09:24:30.112Z,18.84
2023-04-23T09:26:58.758Z,18.94
2023-04-23T09:29:26.800Z,18.99
2023-04-23T09:31:56.700Z,19.00
2023-04-23T09:34:25.456Z,19.04
2023-04-23T09:36:53.787Z,19.07
2023-04-23T09:39:24.631Z,19.14
2023-04-23T09:41:53.760Z,19.18
2023-04-23T09:44:23.146Z,19.19
2023-04-23T09:46:51.077Z,19.25
2023-04-23T09:49:18.863Z,19.16
2023-04-23T09:51:48.800Z,19.16
2023-04-23T09:54:22.668Z,19.22
2023-04-23T09:57:04.034Z,19.26
2023-04-23T09:59:47.014Z,19.35
2023-04-23T10:02:18.794Z,19.40
2023-04-23T10:04:52.328Z,19.34
2023-04-23T10:07:23.017Z,19.32
2023-04-23T10:09:50.498Z,19.31
2023-04-23T10:12:41.111Z,19.33
2023-04-23T10:15:09.583Z,19.37
2023-04-23T10:17:38.059Z,19.38
2023-04-23T10:20:10.248Z,19.38
2023-04-23T10:22:39.375Z,19.40
2023-04-23T10:25:11.761Z,19.39
2023-04-23T10:27:52.697Z,19.39
2023-04-23T10:30:22.433Z,19.44
2023-04-23T10:32:51.175Z,19.51
2023-04-23T10:35:18.956Z,19.66
2023-04-23T10:37:48.405Z,19.74
2023-04-23T10:40:27.742Z,19.89
2023-04-23T10:42:55.897Z,19.97
2023-04-23T10:45:25.186Z,20.03
2023-04-23T10:47:55.926Z,20.14
2023-04-23T10:50:29.600Z,20.19
2023-04-23T10:52:58.113Z,20.36
2023-04-23T10:55:28.741Z,20.22
2023-04-23T10:58:07.512Z,20.17
2023-04-23T11:00:46.308Z,20.25
2023-04-23T11:03:44.122Z,20.41
2023-04-23T11:06:43.251Z,20.56
2023-04-23T11:09:54.063Z,20.69
2023-04-23T11:12:24.182Z,20.79
2023-04-23T11:14:54.737Z,20.77
2023-04-23T11:17:47.326Z,20.80
2023-04-23T11:20:20.760Z,20.89
2023-04-23T11:22:50.550Z,21.00
2023-04-23T11:25:27.672Z,21.12
2023-04-23T11:28:00.534Z,21.16
2023-04-23T11:30:30.053Z,21.22
2023-04-23T11:32:59.980Z,21.24
2023-04-23T11:35:29.417Z,21.28
2023-04-23T11:37:57.164Z,21.34
2023-04-23T11:40:25.980Z,21.43
2023-04-23T11:42:57.443Z,21.56
2023-04-23T11:45:28.278Z,21.58
2023-04-23T11:47:58.280Z,21.61
2023-04-23T11:50:33.092Z,21.66
2023-04-23T11:53:11.407Z,21.83
2023-04-23T11:55:43.697Z,21.90
2023-04-23T11:58:11.364Z,21.93
2023-04-23T12:00:38.900Z,21.94
2023-04-23T12:03:06.907Z,21.88
2023-04-23T12:05:39.286Z,21.86
2023-04-23T12:08:21.011Z,21.79
2023-04-23T12:11:00.761Z,21.87
2023-04-23T12:13:32.055Z,21.98
2023-04-23T12:16:02.612Z,22.15
2023-04-23T12:18:32.523Z,22.21
2023-04-23T12:21:06.910Z,22.22
2023-04-23T12:23:36.189Z,22.17
2023-04-23T12:26:04.532Z,22.25
2023-04-23T12:28:32.076Z,22.23
2023-04-23T12:31:02.029Z,22.29
2023-04-23T12:33:31.061Z,22.35
2023-04-23T12:35:59.807Z,22.56
2023-04-23T12:38:29.880Z,22.82
2023-04-23T12:41:01.841Z,22.94
2023-04-23T12:43:29.351Z,22.97
2023-04-23T12:45:56.935Z,22.93
2023-04-23T12:48:24.502Z,22.89
2023-04-23T12:50:51.995Z,22.94
2023-04-23T12:53:19.540Z,23.03
2023-04-23T12:55:48.345Z,23.07
2023-04-23T12:58:15.891Z,23.01
2023-04-23T13:00:43.414Z,22.97
2023-04-23T13:03:12.697Z,22.93
2023-04-23T13:05:40.289Z,22.85
2023-04-23T13:08:07.825Z,22.80
2023-04-23T13:10:35.367Z,22.78
2023-04-23T13:13:02.857Z,22.76
2023-04-23T13:15:30.444Z,22.67
2023-04-23T13:17:57.937Z,22.54
2023-04-23T13:20:26.139Z,22.41
2023-04-23T13:22:53.611Z,22.49
2023-04-23T13:25:21.106Z,22.74
2023-04-23T13:27:48.642Z,22.77
2023-04-23T13:30:16.236Z,22.78
2023-04-23T13:32:43.736Z,23.02
2023-04-23T13:35:11.823Z,23.08
2023-04-23T13:37:41.057Z,23.28
2023-04-23T13:40:09.118Z,23.52
2023-04-23T13:42:36.571Z,23.74
2023-04-23T13:45:06.123Z,23.82
2023-04-23T13:47:34.801Z,23.89
2023-04-23T13:50:06.822Z,24.07
2023-04-23T13:52:37.193Z,24.16
2023-04-23T13:55:07.437Z,24.35
2023-04-23T13:57:34.938Z,24.56
2023-04-23T14:00:02.534Z,24.75
2023-04-23T14:02:32.004Z,24.91
2023-04-23T14:04:59.640Z,24.94
2023-04-23T14:07:27.111Z,24.91
2023-04-23T14:09:54.604Z,24.65
2023-04-23T14:12:23.893Z,24.62
2023-04-23T14:14:51.442Z,24.63
2023-04-23T14:17:18.942Z,24.60
2023-04-23T14:19:47.193Z,24.65
2023-04-23T14:22:14.916Z,24.92
2023-04-23T14:25:02.984Z,24.72
2023-04-23T14:27:39.553Z,24.76
2023-04-23T14:30:16.946Z,24.29
2023-04-23T14:32:47.570Z,24.17
2023-04-23T14:35:17.353Z,24.34
2023-04-23T14:37:45.612Z,24.23
2023-04-23T14:40:15.769Z,23.95
2023-04-23T14:42:45.473Z,24.10
2023-04-23T14:45:14.023Z,24.09
2023-04-23T14:47:47.763Z,23.86
2023-04-23T14:50:16.624Z,23.99
2023-04-23T14:52:48.888Z,23.82
2023-04-23T14:55:19.334Z,23.68
2023-04-23T14:57:46.879Z,23.59
2023-04-23T15:00:15.544Z,23.57
2023-04-23T15:02:46.550Z,23.44
2023-04-23T15:05:16.474Z,23.47
2023-04-23T15:07:44.084Z,23.54
2023-04-23T15:10:12.149Z,23.60
2023-04-23T15:13:42.290Z,23.58
2023-04-23T15:16:46.910Z,23.66
2023-04-23T15:19:17.745Z,23.56
2023-04-23T15:21:46.616Z,23.38
2023-04-23T15:24:15.621Z,23.33
2023-04-23T15:26:45.665Z,23.42
2023-04-23T15:29:13.580Z,23.45
2023-04-23T15:31:41.974Z,23.43
2023-04-23T15:34:11.433Z,23.35
2023-04-23T15:36:39.076Z,23.27
2023-04-23T15:39:07.525Z,23.34
2023-04-23T15:41:39.553Z,23.34
2023-04-23T15:44:14.056Z,23.43
2023-04-23T15:46:41.558Z,23.44
2023-04-23T15:49:09.123Z,23.43
2023-04-23T15:51:37.473Z,23.14
2023-04-23T15:54:08.036Z,23.18
2023-04-23T15:56:36.564Z,23.09
2023-04-23T15:59:04.137Z,23.12
2023-04-23T16:01:31.770Z,23.16
2023-04-23T16:04:09.289Z,23.15
2023-04-23T16:06:38.206Z,23.21
2023-04-23T16:09:08.329Z,23.23
2023-04-23T16:11:37.452Z,23.11
2023-04-23T16:14:06.877Z,23.07
2023-04-23T16:16:34.528Z,23.00
2023-04-23T16:19:02.858Z,22.90
2023-04-23T16:21:31.963Z,22.80
2023-04-23T16:23:59.578Z,22.69
2023-04-23T16:26:28.918Z,22.59
2023-04-23T16:29:16.474Z,22.48
2023-04-23T16:31:44.991Z,22.40
2023-04-23T16:34:12.560Z,22.28
2023-04-23T16:36:40.158Z,22.05
2023-04-23T16:39:07.626Z,21.81
2023-04-23T16:41:35.132Z,21.64
2023-04-23T16:44:02.668Z,21.34
2023-04-23T16:46:31.941Z,21.09
2023-04-23T16:48:59.816Z,20.91
2023-04-23T16:51:28.353Z,20.78
2023-04-23T16:53:57.000Z,20.63
2023-04-23T16:56:24.701Z,20.46
2023-04-23T16:58:52.346Z,20.23
2023-04-23T17:01:19.941Z,20.14
2023-04-23T17:03:47.592Z,20.05
2023-04-23T17:06:24.553Z,19.66
2023-04-23T17:08:52.134Z,19.63
2023-04-23T17:11:19.786Z,19.59
2023-04-23T17:13:47.525Z,19.60
2023-04-23T17:16:15.201Z,19.57
2023-04-23T17:18:42.741Z,19.46
2023-04-23T17:21:13.276Z,19.37
2023-04-23T17:23:40.819Z,19.05
2023-04-23T17:26:08.333Z,19.05
2023-04-23T17:28:35.900Z,18.84
2023-04-23T17:31:03.850Z,18.83
2023-04-23T17:33:31.566Z,18.87
2023-04-23T17:35:59.328Z,18.87
2023-04-23T17:38:28.006Z,18.93
2023-04-23T17:40:55.816Z,18.76
2023-04-23T17:43:23.391Z,18.74
2023-04-23T17:45:51.173Z,18.48
2023-04-23T17:48:20.762Z,18.58
2023-04-23T17:50:50.685Z,18.37
2023-04-23T17:53:18.469Z,18.48
2023-04-23T17:55:46.297Z,18.36
2023-04-23T17:58:13.806Z,18.35
2023-04-23T18:00:42.834Z,18.31
2023-04-23T18:03:14.475Z,18.13
2023-04-23T18:05:42.551Z,18.14
2023-04-23T18:08:10.144Z,17.96
2023-04-23T18:10:37.847Z,17.94
2023-04-23T18:13:08.920Z,18.02
2023-04-23T18:15:36.621Z,18.10
2023-04-23T18:18:04.454Z,18.01
2023-04-23T18:20:34.979Z,18.04
2023-04-23T18:23:02.490Z,18.04
2023-04-23T18:25:30.310Z,18.06
2023-04-23T18:27:57.817Z,18.01
2023-04-23T18:30:25.706Z,18.04
2023-04-23T18:33:08.743Z,18.07
2023-04-23T18:35:36.355Z,18.09
2023-04-23T18:38:11.427Z,18.04
2023-04-23T18:40:38.969Z,17.93
2023-04-23T18:43:06.508Z,17.97
2023-04-23T18:45:34.356Z,17.97
2023-04-23T18:48:33.701Z,17.98
2023-04-23T18:51:08.556Z,18.00
2023-04-23T18:53:38.788Z,18.01
2023-04-23T18:56:06.388Z,17.92
2023-04-23T18:58:33.874Z,17.96
2023-04-23T19:01:01.518Z,17.94
2023-04-23T19:03:29.634Z,17.93
2023-04-23T19:05:57.854Z,17.81
2023-04-23T19:08:28.661Z,17.85
2023-04-23T19:10:57.165Z,17.87
2023-04-23T19:13:25.152Z,17.77
2023-04-23T19:15:52.742Z,17.47
2023-04-23T19:18:20.490Z,17.46
2023-04-23T19:20:48.724Z,17.38
2023-04-23T19:23:16.209Z,17.29
2023-04-23T19:25:43.829Z,17.08
2023-04-23T19:28:11.353Z,17.17
2023-04-23T19:30:38.935Z,17.19
2023-04-23T19:33:06.558Z,17.20
2023-04-23T19:35:34.088Z,17.08
2023-04-23T19:38:01.632Z,16.95
2023-04-23T19:40:29.154Z,17.05
2023-04-23T19:42:56.631Z,16.96
2023-04-23T19:45:24.631Z,17.02
2023-04-23T19:47:52.561Z,16.89
2023-04-23T19:50:20.585Z,17.00
2023-04-23T19:52:48.317Z,17.11
2023-04-23T19:55:18.134Z,17.12
2023-04-23T19:57:46.059Z,17.10
2023-04-23T20:00:14.346Z,17.17
2023-04-23T20:02:42.127Z,17.20
2023-04-23T20:05:12.805Z,17.22
2023-04-23T20:07:40.388Z,17.24
2023-04-23T20:10:08.526Z,17.24
2023-04-23T20:12:36.140Z,17.23
2023-04-23T20:15:13.174Z,17.25
2023-04-23T20:17:40.777Z,17.23
2023-04-23T20:20:10.907Z,17.20
2023-04-23T20:22:38.646Z,17.16
2023-04-23T20:25:07.084Z,17.16
2023-04-23T20:27:34.782Z,17.17
2023-04-23T20:30:04.683Z,17.16
2023-04-23T20:32:32.185Z,17.17
2023-04-23T20:35:00.160Z,17.15
2023-04-23T20:37:28.400Z,17.08
2023-04-23T20:39:55.958Z,17.01
2023-04-23T20:42:25.439Z,16.88
2023-04-23T20:44:52.923Z,16.93
2023-04-23T20:47:20.617Z,16.89
2023-04-23T20:49:48.172Z,16.87
2023-04-23T20:52:15.735Z,16.91
2023-04-23T20:54:45.089Z,16.85
2023-04-23T20:57:12.715Z,16.86
2023-04-23T20:59:41.696Z,16.85
2023-04-23T21:02:12.862Z,16.82
2023-04-23T21:04:41.171Z,16.80
2023-04-23T21:07:08.874Z,16.79
2023-04-23T21:09:36.409Z,16.73
2023-04-23T21:12:04.015Z,16.65
2023-04-23T21:14:33.910Z,16.62
2023-04-23T21:17:01.467Z,16.61
2023-04-23T21:19:28.996Z,16.58
2023-04-23T21:21:56.494Z,16.56
2023-04-23T21:24:23.995Z,16.51
2023-04-23T21:26:51.614Z,16.50
2023-04-23T21:29:19.149Z,16.39
2023-04-23T21:31:48.497Z,16.39
2023-04-23T21:34:16.161Z,16.38
2023-04-23T21:36:46.643Z,16.26
2023-04-23T21:39:14.173Z,16.26
2023-04-23T21:41:42.097Z,16.26
2023-04-23T21:44:09.577Z,16.31
2023-04-23T21:46:37.122Z,16.27
2023-04-23T21:49:04.912Z,16.24
2023-04-23T21:51:36.714Z,16.24
2023-04-23T21:54:05.735Z,16.16
2023-04-23T21:56:34.048Z,16.07
2023-04-23T21:59:02.264Z,16.00
2023-04-23T22:01:30.030Z,15.94
2023-04-23T22:03:58.801Z,15.93
2023-04-23T22:06:27.584Z,15.86
2023-04-23T22:08:56.687Z,15.79
2023-04-23T22:11:24.268Z,15.72
2023-04-23T22:13:51.744Z,15.69
2023-04-23T22:16:28.140Z,15.69
2023-04-23T22:19:00.359Z,15.63
2023-04-23T22:21:28.218Z,15.66
2023-04-23T22:23:55.988Z,15.65
2023-04-23T22:26:23.604Z,15.67
2023-04-23T22:28:51.082Z,15.60
2023-04-23T22:31:18.679Z,15.59
2023-04-23T22:33:46.335Z,15.59
2023-04-23T22:36:14.121Z,15.52
2023-04-23T22:38:41.949Z,15.52
2023-04-23T22:41:09.446Z,15.53
2023-04-23T22:43:36.913Z,15.53
2023-04-23T22:46:04.630Z,15.54
2023-04-23T22:48:32.218Z,15.52
2023-04-23T22:50:59.712Z,15.52
2023-04-23T22:53:27.195Z,15.45
2023-04-23T22:55:54.867Z,15.44
2023-04-23T22:58:22.375Z,15.48
2023-04-23T23:00:50.118Z,15.49
2023-04-23T23:03:17.688Z,15.48
2023-04-23T23:05:45.226Z,15.46
2023-04-23T23:08:12.793Z,15.45
2023-04-23T23:10:40.365Z,15.47
2023-04-23T23:13:07.836Z,15.45
2023-04-23T23:15:35.373Z,15.42
2023-04-23T23:18:02.923Z,15.42
2023-04-23T23:20:30.820Z,15.42
2023-04-23T23:22:58.369Z,15.36
2023-04-23T23:25:25.913Z,15.33
2023-04-23T23:27:53.404Z,15.31
2023-04-23T23:30:21.011Z,15.26
2023-04-23T23:32:48.686Z,15.28
2023-04-23T23:35:16.282Z,15.27
2023-04-23T23:37:43.772Z,15.31
2023-04-23T23:40:11.732Z,15.35
2023-04-23T23:42:39.279Z,15.35
2023-04-23T23:45:07.642Z,15.36
2023-04-23T23:47:35.196Z,15.30
2023-04-23T23:50:03.307Z,15.33
2023-04-23T23:52:30.900Z,15.37
2023-04-23T23:54:58.404Z,15.40
2023-04-23T23:57:25.996Z,15.44
2023-04-23T23:59:53.504Z,15.49
